sensor_id;sensor_type;location;lat;lon;timestamp;P1;durP1;ratioP1;P2;durP2;ratioP2
11835;SDS011;5977;51.972;7.640;2022-12-18T00:01:27;147.57;;;47.37;;
11835;SDS011;5977;51.972;7.640;2022-12-18T00:03:57;147.90;;;47.43;;
11835;SDS011;5977;51.972;7.640;2022-12-18T00:06:27;148.30;;;47.70;;
11835;SDS011;5977;51.972;7.640;2022-12-18T00:08:57;148.77;;;47.87;;
11835;SDS011;5977;51.972;7.640;2022-12-18T00:11:26;148.27;;;47.60;;
11835;SDS011;5977;51.972;7.640;2022-12-18T00:13:56;148.80;;;47.87;;
11835;SDS011;5977;51.972;7.640;2022-12-18T00:16:27;148.50;;;47.70;;
11835;SDS011;5977;51.972;7.640;2022-12-18T00:18:59;147.20;;;47.10;;
11835;SDS011;5977;51.972;7.640;2022-12-18T00:21:28;147.93;;;47.53;;
11835;SDS011;5977;51.972;7.640;2022-12-18T00:23:57;148.57;;;47.80;;
11835;SDS011;5977;51.972;7.640;2022-12-18T00:26:26;148.03;;;47.43;;
11835;SDS011;5977;51.972;7.640;2022-12-18T00:28:59;148.47;;;47.67;;
11835;SDS011;5977;51.972;7.640;2022-12-18T00:31:32;147.60;;;47.47;;
11835;SDS011;5977;51.972;7.640;2022-12-18T00:34:00;147.53;;;47.40;;
11835;SDS011;5977;51.972;7.640;2022-12-18T00:36:29;147.67;;;47.40;;
11835;SDS011;5977;51.972;7.640;2022-12-18T00:38:59;148.20;;;47.60;;
11835;SDS011;5977;51.972;7.640;2022-12-18T00:41:28;147.57;;;47.33;;
11835;SDS011;5977;51.972;7.640;2022-12-18T00:44:14;147.57;;;47.40;;
11835;SDS011;5977;51.972;7.640;2022-12-18T00:46:45;148.07;;;47.60;;
11835;SDS011;5977;51.972;7.640;2022-12-18T00:49:15;148.20;;;47.60;;
11835;SDS011;5977;51.972;7.640;2022-12-18T00:51:45;148.43;;;47.70;;
11835;SDS011;5977;51.972;7.640;2022-12-18T00:54:13;148.23;;;47.67;;
11835;SDS011;5977;51.972;7.640;2022-12-18T00:56:41;148.20;;;47.67;;
11835;SDS011;5977;51.972;7.640;2022-12-18T00:59:17;149.17;;;48.00;;
11835;SDS011;5977;51.972;7.640;2022-12-18T01:01:46;148.13;;;47.77;;
11835;SDS011;5977;51.972;7.640;2022-12-18T01:04:15;148.10;;;47.60;;
11835;SDS011;5977;51.972;7.640;2022-12-18T01:06:44;148.27;;;47.70;;
11835;SDS011;5977;51.972;7.640;2022-12-18T01:09:12;148.17;;;47.63;;
11835;SDS011;5977;51.972;7.640;2022-12-18T01:11:40;148.17;;;47.53;;
11835;SDS011;5977;51.972;7.640;2022-12-18T01:14:09;147.73;;;47.47;;
11835;SDS011;5977;51.972;7.640;2022-12-18T01:16:37;147.93;;;47.57;;
11835;SDS011;5977;51.972;7.640;2022-12-18T01:19:07;147.70;;;47.40;;
11835;SDS011;5977;51.972;7.640;2022-12-18T01:21:35;148.50;;;47.70;;
11835;SDS011;5977;51.972;7.640;2022-12-18T01:24:03;147.70;;;47.47;;
11835;SDS011;5977;51.972;7.640;2022-12-18T01:26:32;147.97;;;47.47;;
11835;SDS011;5977;51.972;7.640;2022-12-18T01:29:00;148.23;;;47.63;;
11835;SDS011;5977;51.972;7.640;2022-12-18T01:31:29;147.43;;;47.40;;
11835;SDS011;5977;51.972;7.640;2022-12-18T01:34:01;148.37;;;47.77;;
11835;SDS011;5977;51.972;7.640;2022-12-18T01:36:32;147.87;;;47.53;;
11835;SDS011;5977;51.972;7.640;2022-12-18T01:39:02;148.10;;;47.60;;
11835;SDS011;5977;51.972;7.640;2022-12-18T01:41:31;148.10;;;47.63;;
11835;SDS011;5977;51.972;7.640;2022-12-18T01:47:28;147.40;;;47.47;;
11835;SDS011;5977;51.972;7.640;2022-12-18T01:49:59;148.03;;;47.60;;
11835;SDS011;5977;51.972;7.640;2022-12-18T01:52:31;147.83;;;47.50;;
11835;SDS011;5977;51.972;7.640;2022-12-18T01:55:00;148.03;;;47.67;;
11835;SDS011;5977;51.972;7.640;2022-12-18T01:57:31;147.83;;;47.53;;
11835;SDS011;5977;51.972;7.640;2022-12-18T02:00:03;147.47;;;47.43;;
11835;SDS011;5977;51.972;7.640;2022-12-18T02:02:39;147.33;;;47.40;;
11835;SDS011;5977;51.972;7.640;2022-12-18T02:05:09;147.23;;;47.40;;
11835;SDS011;5977;51.972;7.640;2022-12-18T02:07:42;148.30;;;47.73;;
11835;SDS011;5977;51.972;7.640;2022-12-18T02:10:22;147.67;;;47.53;;
11835;SDS011;5977;51.972;7.640;2022-12-18T02:12:55;148.20;;;47.67;;
11835;SDS011;5977;51.972;7.640;2022-12-18T02:15:29;147.80;;;47.43;;
11835;SDS011;5977;51.972;7.640;2022-12-18T02:18:04;148.10;;;47.70;;
11835;SDS011;5977;51.972;7.640;2022-12-18T02:20:36;147.77;;;47.57;;
11835;SDS011;5977;51.972;7.640;2022-12-18T02:23:12;148.13;;;47.63;;
11835;SDS011;5977;51.972;7.640;2022-12-18T02:26:06;148.17;;;47.60;;
11835;SDS011;5977;51.972;7.640;2022-12-18T02:28:42;147.77;;;47.60;;
11835;SDS011;5977;51.972;7.640;2022-12-18T02:31:14;148.60;;;47.80;;
11835;SDS011;5977;51.972;7.640;2022-12-18T02:33:51;147.67;;;47.53;;
11835;SDS011;5977;51.972;7.640;2022-12-18T02:36:23;147.13;;;47.37;;
11835;SDS011;5977;51.972;7.640;2022-12-18T02:38:55;147.17;;;47.30;;
11835;SDS011;5977;51.972;7.640;2022-12-18T02:41:25;148.07;;;47.60;;
11835;SDS011;5977;51.972;7.640;2022-12-18T02:43:55;147.57;;;47.50;;
11835;SDS011;5977;51.972;7.640;2022-12-18T02:46:25;147.40;;;47.40;;
11835;SDS011;5977;51.972;7.640;2022-12-18T02:49:10;147.50;;;47.37;;
11835;SDS011;5977;51.972;7.640;2022-12-18T02:51:48;147.60;;;47.47;;
11835;SDS011;5977;51.972;7.640;2022-12-18T02:54:26;147.53;;;47.40;;
11835;SDS011;5977;51.972;7.640;2022-12-18T02:57:09;146.77;;;47.10;;
11835;SDS011;5977;51.972;7.640;2022-12-18T02:59:47;147.67;;;47.43;;
11835;SDS011;5977;51.972;7.640;2022-12-18T03:02:24;147.60;;;47.43;;
11835;SDS011;5977;51.972;7.640;2022-12-18T03:04:58;147.10;;;47.23;;
11835;SDS011;5977;51.972;7.640;2022-12-18T03:07:34;148.20;;;47.70;;
11835;SDS011;5977;51.972;7.640;2022-12-18T03:10:09;147.33;;;47.27;;
11835;SDS011;5977;51.972;7.640;2022-12-18T03:12:44;147.67;;;47.50;;
11835;SDS011;5977;51.972;7.640;2022-12-18T03:15:17;147.57;;;47.47;;
11835;SDS011;5977;51.972;7.640;2022-12-18T03:17:55;147.27;;;47.37;;
11835;SDS011;5977;51.972;7.640;2022-12-18T03:20:30;147.33;;;47.47;;
11835;SDS011;5977;51.972;7.640;2022-12-18T03:23:02;147.60;;;47.50;;
11835;SDS011;5977;51.972;7.640;2022-12-18T03:25:34;147.80;;;47.57;;
11835;SDS011;5977;51.972;7.640;2022-12-18T03:28:08;147.70;;;47.60;;
11835;SDS011;5977;51.972;7.640;2022-12-18T03:30:41;148.17;;;47.67;;
11835;SDS011;5977;51.972;7.640;2022-12-18T03:33:14;146.87;;;47.20;;
11835;SDS011;5977;51.972;7.640;2022-12-18T03:35:47;147.20;;;47.33;;
11835;SDS011;5977;51.972;7.640;2022-12-18T03:38:16;147.93;;;47.50;;
11835;SDS011;5977;51.972;7.640;2022-12-18T03:40:51;147.60;;;47.57;;
11835;SDS011;5977;51.972;7.640;2022-12-18T03:43:30;147.73;;;47.47;;
11835;SDS011;5977;51.972;7.640;2022-12-18T03:46:11;147.80;;;47.50;;
11835;SDS011;5977;51.972;7.640;2022-12-18T03:48:46;147.27;;;47.37;;
11835;SDS011;5977;51.972;7.640;2022-12-18T03:51:22;147.47;;;47.47;;
11835;SDS011;5977;51.972;7.640;2022-12-18T03:53:57;147.30;;;47.37;;
11835;SDS011;5977;51.972;7.640;2022-12-18T03:56:37;147.73;;;47.60;;
11835;SDS011;5977;51.972;7.640;2022-12-18T03:59:11;147.17;;;47.30;;
11835;SDS011;5977;51.972;7.640;2022-12-18T04:01:45;147.90;;;47.70;;
11835;SDS011;5977;51.972;7.640;2022-12-18T04:04:16;147.63;;;47.50;;
11835;SDS011;5977;51.972;7.640;2022-12-18T04:06:46;147.53;;;47.50;;
11835;SDS011;5977;51.972;7.640;2022-12-18T04:09:17;147.57;;;47.50;;
11835;SDS011;5977;51.972;7.640;2022-12-18T04:11:47;147.40;;;47.40;;
11835;SDS011;5977;51.972;7.640;2022-12-18T04:14:16;147.73;;;47.60;;
11835;SDS011;5977;51.972;7.640;2022-12-18T04:16:49;147.03;;;47.37;;
11835;SDS011;5977;51.972;7.640;2022-12-18T04:19:20;147.17;;;47.33;;
11835;SDS011;5977;51.972;7.640;2022-12-18T04:21:50;147.47;;;47.43;;
11835;SDS011;5977;51.972;7.640;2022-12-18T04:24:18;147.40;;;47.37;;
11835;SDS011;5977;51.972;7.640;2022-12-18T04:26:57;147.47;;;47.37;;
11835;SDS011;5977;51.972;7.640;2022-12-18T04:29:32;147.37;;;47.40;;
11835;SDS011;5977;51.972;7.640;2022-12-18T04:32:00;147.23;;;47.37;;
11835;SDS011;5977;51.972;7.640;2022-12-18T04:34:30;147.87;;;47.60;;
11835;SDS011;5977;51.972;7.640;2022-12-18T04:36:57;147.23;;;47.30;;
11835;SDS011;5977;51.972;7.640;2022-12-18T04:39:25;147.47;;;47.40;;
11835;SDS011;5977;51.972;7.640;2022-12-18T04:41:58;147.77;;;47.50;;
11835;SDS011;5977;51.972;7.640;2022-12-18T04:44:26;147.67;;;47.50;;
11835;SDS011;5977;51.972;7.640;2022-12-18T04:46:56;147.33;;;47.37;;
11835;SDS011;5977;51.972;7.640;2022-12-18T04:49:24;147.07;;;47.40;;
11835;SDS011;5977;51.972;7.640;2022-12-18T04:51:52;147.53;;;47.50;;
11835;SDS011;5977;51.972;7.640;2022-12-18T04:54:20;147.20;;;47.37;;
11835;SDS011;5977;51.972;7.640;2022-12-18T04:56:48;148.07;;;47.77;;
11835;SDS011;5977;51.972;7.640;2022-12-18T04:59:16;147.27;;;47.47;;
11835;SDS011;5977;51.972;7.640;2022-12-18T05:01:44;146.87;;;47.23;;
11835;SDS011;5977;51.972;7.640;2022-12-18T05:04:14;147.23;;;47.40;;
11835;SDS011;5977;51.972;7.640;2022-12-18T05:06:42;146.50;;;47.17;;
11835;SDS011;5977;51.972;7.640;2022-12-18T05:09:10;146.70;;;47.07;;
11835;SDS011;5977;51.972;7.640;2022-12-18T05:11:38;147.17;;;47.40;;
11835;SDS011;5977;51.972;7.640;2022-12-18T05:14:06;147.87;;;47.63;;
11835;SDS011;5977;51.972;7.640;2022-12-18T05:16:34;147.63;;;47.67;;
11835;SDS011;5977;51.972;7.640;2022-12-18T05:19:02;146.97;;;47.37;;
11835;SDS011;5977;51.972;7.640;2022-12-18T05:21:31;147.83;;;47.67;;
11835;SDS011;5977;51.972;7.640;2022-12-18T05:23:59;147.17;;;47.40;;
11835;SDS011;5977;51.972;7.640;2022-12-18T05:26:26;147.30;;;47.53;;
11835;SDS011;5977;51.972;7.640;2022-12-18T05:28:54;147.33;;;47.43;;
11835;SDS011;5977;51.972;7.640;2022-12-18T05:31:22;147.63;;;47.53;;
11835;SDS011;5977;51.972;7.640;2022-12-18T05:33:50;147.33;;;47.50;;
11835;SDS011;5977;51.972;7.640;2022-12-18T05:36:18;147.07;;;47.40;;
11835;SDS011;5977;51.972;7.640;2022-12-18T05:38:47;146.90;;;47.20;;
11835;SDS011;5977;51.972;7.640;2022-12-18T05:41:15;147.00;;;47.30;;
11835;SDS011;5977;51.972;7.640;2022-12-18T05:43:43;147.63;;;47.50;;
11835;SDS011;5977;51.972;7.640;2022-12-18T05:46:11;147.23;;;47.40;;
11835;SDS011;5977;51.972;7.640;2022-12-18T05:48:41;146.80;;;47.33;;
11835;SDS011;5977;51.972;7.640;2022-12-18T05:51:10;147.57;;;47.60;;
11835;SDS011;5977;51.972;7.640;2022-12-18T05:53:39;146.67;;;47.27;;
11835;SDS011;5977;51.972;7.640;2022-12-18T05:56:10;147.57;;;47.57;;
11835;SDS011;5977;51.972;7.640;2022-12-18T05:58:40;146.77;;;47.20;;
11835;SDS011;5977;51.972;7.640;2022-12-18T06:01:09;147.10;;;47.47;;
11835;SDS011;5977;51.972;7.640;2022-12-18T06:03:40;147.37;;;47.60;;
11835;SDS011;5977;51.972;7.640;2022-12-18T06:06:15;146.33;;;47.03;;
11835;SDS011;5977;51.972;7.640;2022-12-18T06:08:44;146.93;;;47.30;;
11835;SDS011;5977;51.972;7.640;2022-12-18T06:11:15;147.23;;;47.40;;
11835;SDS011;5977;51.972;7.640;2022-12-18T06:13:45;147.03;;;47.27;;
11835;SDS011;5977;51.972;7.640;2022-12-18T06:16:13;147.10;;;47.40;;
11835;SDS011;5977;51.972;7.640;2022-12-18T06:18:41;146.90;;;47.33;;
11835;SDS011;5977;51.972;7.640;2022-12-18T06:21:09;147.03;;;47.30;;
11835;SDS011;5977;51.972;7.640;2022-12-18T06:23:37;146.93;;;47.40;;
11835;SDS011;5977;51.972;7.640;2022-12-18T06:26:06;147.23;;;47.37;;
11835;SDS011;5977;51.972;7.640;2022-12-18T06:28:37;147.43;;;47.67;;
11835;SDS011;5977;51.972;7.640;2022-12-18T06:31:05;147.07;;;47.40;;
11835;SDS011;5977;51.972;7.640;2022-12-18T06:33:34;146.63;;;47.30;;
11835;SDS011;5977;51.972;7.640;2022-12-18T06:36:03;146.83;;;47.33;;
11835;SDS011;5977;51.972;7.640;2022-12-18T06:38:33;146.60;;;47.20;;
11835;SDS011;5977;51.972;7.640;2022-12-18T06:41:05;146.77;;;47.20;;
11835;SDS011;5977;51.972;7.640;2022-12-18T06:43:34;147.03;;;47.33;;
11835;SDS011;5977;51.972;7.640;2022-12-18T06:46:04;146.60;;;47.20;;
11835;SDS011;5977;51.972;7.640;2022-12-18T06:48:33;146.57;;;47.17;;
11835;SDS011;5977;51.972;7.640;2022-12-18T06:51:02;146.93;;;47.33;;
11835;SDS011;5977;51.972;7.640;2022-12-18T06:53:31;146.90;;;47.30;;
11835;SDS011;5977;51.972;7.640;2022-12-18T06:56:00;147.27;;;47.50;;
11835;SDS011;5977;51.972;7.640;2022-12-18T06:58:35;147.03;;;47.37;;
11835;SDS011;5977;51.972;7.640;2022-12-18T07:01:05;147.10;;;47.43;;
11835;SDS011;5977;51.972;7.640;2022-12-18T07:03:34;147.37;;;47.50;;
11835;SDS011;5977;51.972;7.640;2022-12-18T07:06:03;147.03;;;47.30;;
11835;SDS011;5977;51.972;7.640;2022-12-18T07:08:31;146.80;;;47.30;;
11835;SDS011;5977;51.972;7.640;2022-12-18T07:11:02;147.57;;;47.60;;
11835;SDS011;5977;51.972;7.640;2022-12-18T07:13:31;146.97;;;47.27;;
11835;SDS011;5977;51.972;7.640;2022-12-18T07:16:09;146.50;;;47.30;;
11835;SDS011;5977;51.972;7.640;2022-12-18T07:18:47;146.83;;;47.37;;
11835;SDS011;5977;51.972;7.640;2022-12-18T07:21:16;146.40;;;47.13;;
11835;SDS011;5977;51.972;7.640;2022-12-18T07:23:45;146.60;;;47.17;;
11835;SDS011;5977;51.972;7.640;2022-12-18T07:26:15;146.93;;;47.43;;
11835;SDS011;5977;51.972;7.640;2022-12-18T07:28:44;146.70;;;47.37;;
11835;SDS011;5977;51.972;7.640;2022-12-18T07:31:14;146.33;;;47.20;;
11835;SDS011;5977;51.972;7.640;2022-12-18T07:33:43;146.53;;;47.30;;
11835;SDS011;5977;51.972;7.640;2022-12-18T07:36:12;146.10;;;47.20;;
11835;SDS011;5977;51.972;7.640;2022-12-18T07:38:40;146.90;;;47.47;;
11835;SDS011;5977;51.972;7.640;2022-12-18T07:41:09;145.93;;;47.13;;
11835;SDS011;5977;51.972;7.640;2022-12-18T07:43:38;146.80;;;47.40;;
11835;SDS011;5977;51.972;7.640;2022-12-18T07:46:08;146.43;;;47.27;;
11835;SDS011;5977;51.972;7.640;2022-12-18T07:48:40;145.40;;;46.93;;
11835;SDS011;5977;51.972;7.640;2022-12-18T07:51:09;146.27;;;47.27;;
11835;SDS011;5977;51.972;7.640;2022-12-18T07:53:36;146.23;;;47.30;;
11835;SDS011;5977;51.972;7.640;2022-12-18T07:56:05;145.87;;;47.10;;
11835;SDS011;5977;51.972;7.640;2022-12-18T07:58:53;146.27;;;47.20;;
11835;SDS011;5977;51.972;7.640;2022-12-18T08:01:21;145.73;;;47.03;;
11835;SDS011;5977;51.972;7.640;2022-12-18T08:03:51;146.50;;;47.33;;
11835;SDS011;5977;51.972;7.640;2022-12-18T08:06:19;146.13;;;47.20;;
11835;SDS011;5977;51.972;7.640;2022-12-18T08:08:50;146.10;;;47.27;;
11835;SDS011;5977;51.972;7.640;2022-12-18T08:11:18;145.83;;;47.13;;
11835;SDS011;5977;51.972;7.640;2022-12-18T08:13:46;145.93;;;47.13;;
11835;SDS011;5977;51.972;7.640;2022-12-18T08:16:15;145.57;;;46.93;;
11835;SDS011;5977;51.972;7.640;2022-12-18T08:18:43;145.63;;;47.00;;
11835;SDS011;5977;51.972;7.640;2022-12-18T08:21:13;146.40;;;47.33;;
11835;SDS011;5977;51.972;7.640;2022-12-18T08:23:42;146.07;;;47.13;;
11835;SDS011;5977;51.972;7.640;2022-12-18T08:26:11;145.77;;;47.00;;
11835;SDS011;5977;51.972;7.640;2022-12-18T08:28:39;146.33;;;47.23;;
11835;SDS011;5977;51.972;7.640;2022-12-18T08:31:08;146.90;;;47.33;;
11835;SDS011;5977;51.972;7.640;2022-12-18T08:33:36;145.93;;;47.20;;
11835;SDS011;5977;51.972;7.640;2022-12-18T08:36:07;146.83;;;47.40;;
11835;SDS011;5977;51.972;7.640;2022-12-18T08:38:38;146.97;;;47.43;;
11835;SDS011;5977;51.972;7.640;2022-12-18T08:41:07;146.77;;;47.40;;
11835;SDS011;5977;51.972;7.640;2022-12-18T08:43:37;146.80;;;47.47;;
11835;SDS011;5977;51.972;7.640;2022-12-18T08:46:23;146.83;;;47.43;;
11835;SDS011;5977;51.972;7.640;2022-12-18T08:48:53;147.37;;;47.60;;
11835;SDS011;5977;51.972;7.640;2022-12-18T08:51:21;147.43;;;47.53;;
11835;SDS011;5977;51.972;7.640;2022-12-18T08:53:51;148.07;;;48.00;;
11835;SDS011;5977;51.972;7.640;2022-12-18T08:56:19;147.67;;;47.70;;
11835;SDS011;5977;51.972;7.640;2022-12-18T08:58:46;147.27;;;47.40;;
11835;SDS011;5977;51.972;7.640;2022-12-18T09:01:14;146.80;;;47.30;;
11835;SDS011;5977;51.972;7.640;2022-12-18T09:03:42;147.00;;;47.37;;
11835;SDS011;5977;51.972;7.640;2022-12-18T09:06:12;147.03;;;47.43;;
11835;SDS011;5977;51.972;7.640;2022-12-18T09:08:40;146.53;;;47.20;;
11835;SDS011;5977;51.972;7.640;2022-12-18T09:11:13;147.73;;;47.57;;
11835;SDS011;5977;51.972;7.640;2022-12-18T09:13:42;146.63;;;47.33;;
11835;SDS011;5977;51.972;7.640;2022-12-18T09:16:10;147.50;;;47.57;;
11835;SDS011;5977;51.972;7.640;2022-12-18T09:18:37;147.93;;;47.70;;
11835;SDS011;5977;51.972;7.640;2022-12-18T09:21:09;147.30;;;47.57;;
11835;SDS011;5977;51.972;7.640;2022-12-18T09:23:39;147.50;;;47.60;;
11835;SDS011;5977;51.972;7.640;2022-12-18T09:26:07;148.00;;;47.70;;
11835;SDS011;5977;51.972;7.640;2022-12-18T09:28:36;147.43;;;47.53;;
11835;SDS011;5977;51.972;7.640;2022-12-18T09:31:05;146.93;;;47.37;;
11835;SDS011;5977;51.972;7.640;2022-12-18T09:33:34;147.70;;;47.43;;
11835;SDS011;5977;51.972;7.640;2022-12-18T09:36:04;148.53;;;47.90;;
11835;SDS011;5977;51.972;7.640;2022-12-18T09:38:34;147.83;;;47.73;;
11835;SDS011;5977;51.972;7.640;2022-12-18T09:41:03;148.17;;;47.70;;
11835;SDS011;5977;51.972;7.640;2022-12-18T09:43:42;147.50;;;47.53;;
11835;SDS011;5977;51.972;7.640;2022-12-18T09:46:15;147.53;;;47.60;;
11835;SDS011;5977;51.972;7.640;2022-12-18T09:48:47;147.37;;;47.47;;
11835;SDS011;5977;51.972;7.640;2022-12-18T09:51:20;147.43;;;47.63;;
11835;SDS011;5977;51.972;7.640;2022-12-18T09:53:53;147.97;;;47.67;;
11835;SDS011;5977;51.972;7.640;2022-12-18T09:56:26;147.97;;;47.70;;
11835;SDS011;5977;51.972;7.640;2022-12-18T09:58:59;148.07;;;47.73;;
11835;SDS011;5977;51.972;7.640;2022-12-18T10:01:29;147.70;;;47.63;;
11835;SDS011;5977;51.972;7.640;2022-12-18T10:04:08;147.60;;;47.53;;
11835;SDS011;5977;51.972;7.640;2022-12-18T10:06:38;147.30;;;47.47;;
11835;SDS011;5977;51.972;7.640;2022-12-18T10:09:12;147.60;;;47.57;;
11835;SDS011;5977;51.972;7.640;2022-12-18T10:11:53;146.93;;;47.23;;
11835;SDS011;5977;51.972;7.640;2022-12-18T10:14:36;148.07;;;47.80;;
11835;SDS011;5977;51.972;7.640;2022-12-18T10:17:13;148.13;;;47.87;;
11835;SDS011;5977;51.972;7.640;2022-12-18T10:19:49;148.10;;;47.63;;
11835;SDS011;5977;51.972;7.640;2022-12-18T10:22:25;147.50;;;47.50;;
11835;SDS011;5977;51.972;7.640;2022-12-18T10:25:10;147.50;;;47.60;;
11835;SDS011;5977;51.972;7.640;2022-12-18T10:27:46;147.80;;;47.67;;
11835;SDS011;5977;51.972;7.640;2022-12-18T10:30:17;147.70;;;47.50;;
11835;SDS011;5977;51.972;7.640;2022-12-18T10:32:47;147.90;;;47.67;;
11835;SDS011;5977;51.972;7.640;2022-12-18T10:35:16;148.13;;;47.87;;
11835;SDS011;5977;51.972;7.640;2022-12-18T10:37:59;147.37;;;47.50;;
11835;SDS011;5977;51.972;7.640;2022-12-18T10:40:30;147.60;;;47.60;;
11835;SDS011;5977;51.972;7.640;2022-12-18T10:43:05;147.80;;;47.83;;
11835;SDS011;5977;51.972;7.640;2022-12-18T10:45:39;147.03;;;47.50;;
11835;SDS011;5977;51.972;7.640;2022-12-18T10:48:17;147.53;;;47.63;;
11835;SDS011;5977;51.972;7.640;2022-12-18T10:50:47;147.80;;;47.53;;
11835;SDS011;5977;51.972;7.640;2022-12-18T10:53:38;147.77;;;47.67;;
11835;SDS011;5977;51.972;7.640;2022-12-18T10:56:08;147.97;;;47.70;;
11835;SDS011;5977;51.972;7.640;2022-12-18T10:58:38;147.50;;;47.33;;
11835;SDS011;5977;51.972;7.640;2022-12-18T11:01:10;148.23;;;47.67;;
11835;SDS011;5977;51.972;7.640;2022-12-18T11:03:40;148.43;;;47.80;;
11835;SDS011;5977;51.972;7.640;2022-12-18T11:06:10;148.07;;;47.63;;
11835;SDS011;5977;51.972;7.640;2022-12-18T11:08:40;147.97;;;47.73;;
11835;SDS011;5977;51.972;7.640;2022-12-18T11:11:15;149.00;;;47.90;;
11835;SDS011;5977;51.972;7.640;2022-12-18T11:13:52;148.57;;;47.87;;
11835;SDS011;5977;51.972;7.640;2022-12-18T11:16:27;148.17;;;47.67;;
11835;SDS011;5977;51.972;7.640;2022-12-18T11:19:07;148.73;;;47.97;;
11835;SDS011;5977;51.972;7.640;2022-12-18T11:21:46;147.87;;;47.67;;
11835;SDS011;5977;51.972;7.640;2022-12-18T11:24:17;148.50;;;47.77;;
11835;SDS011;5977;51.972;7.640;2022-12-18T11:26:52;148.33;;;47.83;;
11835;SDS011;5977;51.972;7.640;2022-12-18T11:29:27;148.53;;;47.93;;
11835;SDS011;5977;51.972;7.640;2022-12-18T11:34:52;148.07;;;47.70;;
11835;SDS011;5977;51.972;7.640;2022-12-18T11:37:26;148.97;;;47.97;;
11835;SDS011;5977;51.972;7.640;2022-12-18T11:39:55;148.50;;;47.80;;
11835;SDS011;5977;51.972;7.640;2022-12-18T11:42:27;147.00;;;47.20;;
11835;SDS011;5977;51.972;7.640;2022-12-18T11:45:02;148.57;;;47.97;;
11835;SDS011;5977;51.972;7.640;2022-12-18T11:47:44;148.23;;;47.67;;
11835;SDS011;5977;51.972;7.640;2022-12-18T11:50:17;148.17;;;47.63;;
11835;SDS011;5977;51.972;7.640;2022-12-18T11:52:48;148.00;;;47.70;;
11835;SDS011;5977;51.972;7.640;2022-12-18T11:55:26;148.10;;;47.60;;
11835;SDS011;5977;51.972;7.640;2022-12-18T11:58:00;148.43;;;47.80;;
11835;SDS011;5977;51.972;7.640;2022-12-18T12:00:35;148.30;;;47.73;;
11835;SDS011;5977;51.972;7.640;2022-12-18T12:03:16;147.53;;;47.37;;
11835;SDS011;5977;51.972;7.640;2022-12-18T12:05:58;148.20;;;47.70;;
11835;SDS011;5977;51.972;7.640;2022-12-18T12:08:38;148.17;;;47.70;;
11835;SDS011;5977;51.972;7.640;2022-12-18T12:11:15;149.10;;;48.17;;
11835;SDS011;5977;51.972;7.640;2022-12-18T12:13:52;147.93;;;47.60;;
11835;SDS011;5977;51.972;7.640;2022-12-18T12:16:32;147.47;;;47.47;;
11835;SDS011;5977;51.972;7.640;2022-12-18T12:19:10;147.83;;;47.60;;
11835;SDS011;5977;51.972;7.640;2022-12-18T12:21:48;148.30;;;47.80;;
11835;SDS011;5977;51.972;7.640;2022-12-18T12:24:27;148.77;;;47.93;;
11835;SDS011;5977;51.972;7.640;2022-12-18T12:27:06;148.00;;;47.70;;
11835;SDS011;5977;51.972;7.640;2022-12-18T12:29:47;147.90;;;47.70;;
11835;SDS011;5977;51.972;7.640;2022-12-18T12:32:26;147.70;;;47.57;;
11835;SDS011;5977;51.972;7.640;2022-12-18T12:35:08;148.20;;;47.80;;
11835;SDS011;5977;51.972;7.640;2022-12-18T12:37:51;148.17;;;47.70;;
11835;SDS011;5977;51.972;7.640;2022-12-18T12:40:28;148.47;;;48.00;;
11835;SDS011;5977;51.972;7.640;2022-12-18T12:43:21;147.80;;;47.63;;
11835;SDS011;5977;51.972;7.640;2022-12-18T12:45:53;147.37;;;47.43;;
11835;SDS011;5977;51.972;7.640;2022-12-18T12:48:27;148.23;;;47.70;;
11835;SDS011;5977;51.972;7.640;2022-12-18T12:51:04;148.03;;;47.67;;
11835;SDS011;5977;51.972;7.640;2022-12-18T12:53:38;147.43;;;47.43;;
11835;SDS011;5977;51.972;7.640;2022-12-18T12:56:08;147.57;;;47.53;;
11835;SDS011;5977;51.972;7.640;2022-12-18T12:58:41;148.23;;;47.73;;
11835;SDS011;5977;51.972;7.640;2022-12-18T13:01:19;147.73;;;47.47;;
11835;SDS011;5977;51.972;7.640;2022-12-18T13:03:56;147.93;;;47.60;;
11835;SDS011;5977;51.972;7.640;2022-12-18T13:06:37;148.53;;;47.87;;
11835;SDS011;5977;51.972;7.640;2022-12-18T13:09:11;148.17;;;47.73;;
11835;SDS011;5977;51.972;7.640;2022-12-18T13:11:39;147.90;;;47.70;;
11835;SDS011;5977;51.972;7.640;2022-12-18T13:14:28;147.40;;;47.33;;
11835;SDS011;5977;51.972;7.640;2022-12-18T13:17:14;148.23;;;47.80;;
11835;SDS011;5977;51.972;7.640;2022-12-18T13:19:44;147.17;;;47.33;;
11835;SDS011;5977;51.972;7.640;2022-12-18T13:22:23;147.93;;;47.70;;
11835;SDS011;5977;51.972;7.640;2022-12-18T13:25:02;146.83;;;47.30;;
11835;SDS011;5977;51.972;7.640;2022-12-18T13:27:55;148.20;;;47.67;;
11835;SDS011;5977;51.972;7.640;2022-12-18T13:30:41;146.73;;;47.20;;
11835;SDS011;5977;51.972;7.640;2022-12-18T13:33:36;148.57;;;47.83;;
11835;SDS011;5977;51.972;7.640;2022-12-18T13:36:30;148.77;;;47.90;;
11835;SDS011;5977;51.972;7.640;2022-12-18T13:39:10;147.33;;;47.40;;
11835;SDS011;5977;51.972;7.640;2022-12-18T13:45:37;148.20;;;47.70;;
11835;SDS011;5977;51.972;7.640;2022-12-18T13:48:17;148.20;;;47.70;;
11835;SDS011;5977;51.972;7.640;2022-12-18T13:50:57;148.27;;;47.60;;
11835;SDS011;5977;51.972;7.640;2022-12-18T13:53:30;147.90;;;47.60;;
11835;SDS011;5977;51.972;7.640;2022-12-18T13:56:08;148.57;;;47.87;;
11835;SDS011;5977;51.972;7.640;2022-12-18T13:58:36;148.77;;;47.97;;
11835;SDS011;5977;51.972;7.640;2022-12-18T14:01:04;148.77;;;47.87;;
11835;SDS011;5977;51.972;7.640;2022-12-18T14:03:33;147.93;;;47.57;;
11835;SDS011;5977;51.972;7.640;2022-12-18T14:06:02;148.63;;;47.87;;
11835;SDS011;5977;51.972;7.640;2022-12-18T14:08:34;148.47;;;47.80;;
11835;SDS011;5977;51.972;7.640;2022-12-18T14:11:06;148.17;;;47.60;;
11835;SDS011;5977;51.972;7.640;2022-12-18T14:13:46;148.97;;;47.90;;
11835;SDS011;5977;51.972;7.640;2022-12-18T14:16:16;148.37;;;47.73;;
11835;SDS011;5977;51.972;7.640;2022-12-18T14:18:45;148.77;;;47.80;;
11835;SDS011;5977;51.972;7.640;2022-12-18T14:21:17;149.13;;;48.03;;
11835;SDS011;5977;51.972;7.640;2022-12-18T14:23:48;148.57;;;47.70;;
11835;SDS011;5977;51.972;7.640;2022-12-18T14:26:21;148.27;;;47.70;;
11835;SDS011;5977;51.972;7.640;2022-12-18T14:28:53;148.33;;;47.77;;
11835;SDS011;5977;51.972;7.640;2022-12-18T14:31:22;147.53;;;47.50;;
11835;SDS011;5977;51.972;7.640;2022-12-18T14:33:52;148.23;;;47.67;;
11835;SDS011;5977;51.972;7.640;2022-12-18T14:36:20;147.93;;;47.67;;
11835;SDS011;5977;51.972;7.640;2022-12-18T14:38:50;147.87;;;47.50;;
11835;SDS011;5977;51.972;7.640;2022-12-18T14:41:21;147.83;;;47.50;;
11835;SDS011;5977;51.972;7.640;2022-12-18T14:43:50;147.87;;;47.60;;
11835;SDS011;5977;51.972;7.640;2022-12-18T14:46:27;147.87;;;47.43;;
11835;SDS011;5977;51.972;7.640;2022-12-18T14:48:59;148.13;;;47.53;;
11835;SDS011;5977;51.972;7.640;2022-12-18T14:51:28;148.00;;;47.57;;
11835;SDS011;5977;51.972;7.640;2022-12-18T14:53:58;147.43;;;47.40;;
11835;SDS011;5977;51.972;7.640;2022-12-18T14:56:30;148.30;;;47.70;;
11835;SDS011;5977;51.972;7.640;2022-12-18T14:58:59;148.03;;;47.60;;
11835;SDS011;5977;51.972;7.640;2022-12-18T15:01:30;148.07;;;47.60;;